createdAt,value
2023-05-18T00:02:01.871Z,60.8
2023-05-18T00:07:20.493Z,61.6
2023-05-18T00:12:39.047Z,61.3
2023-05-18T00:17:57.558Z,61
2023-05-18T00:23:15.660Z,61.4
2023-05-18T00:28:34.017Z,61.3
2023-05-18T00:33:52.348Z,60.7
2023-05-18T00:39:10.604Z,61
2023-05-18T00:44:28.907Z,61.5
2023-05-18T00:49:47.279Z,61.8
2023-05-18T00:55:05.991Z,60.9
2023-05-18T01:00:23.932Z,61.4
2023-05-18T01:05:41.968Z,61.2
2023-05-18T01:11:00.493Z,61
2023-05-18T01:16:18.468Z,61.1
2023-05-18T01:21:36.698Z,60.8
2023-05-18T01:26:55.128Z,61
2023-05-18T01:32:13.694Z,62.2
2023-05-18T01:37:32.213Z,60.8
2023-05-18T01:42:50.766Z,61.4
2023-05-18T01:48:08.954Z,61.1
2023-05-18T01:53:27.286Z,61.5
2023-05-18T01:58:46.110Z,61.8
2023-05-18T02:04:04.535Z,62.1
2023-05-18T02:09:22.937Z,61.5
2023-05-18T02:14:40.990Z,60.9
2023-05-18T02:19:58.899Z,62.4
2023-05-18T02:25:17.085Z,62.3
2023-05-18T02:30:35.289Z,61.8
2023-05-18T02:35:53.456Z,62.3
2023-05-18T02:41:11.799Z,62.4
2023-05-18T02:46:30.430Z,62.1
2023-05-18T02:51:48.651Z,62.9
2023-05-18T02:57:07.250Z,62.4
2023-05-18T03:02:25.713Z,62.1
2023-05-18T03:07:44.328Z,61.9
2023-05-18T03:13:02.665Z,61.5
2023-05-18T03:18:21.194Z,61.6
2023-05-18T03:23:39.540Z,61.4
2023-05-18T03:28:57.894Z,62.4
2023-05-18T03:34:16.286Z,61.2
2023-05-18T03:39:34.631Z,61.5
2023-05-18T03:44:52.971Z,60.9
2023-05-18T03:50:13.658Z,61.3
2023-05-18T03:55:32.658Z,60.4
2023-05-18T04:00:51.255Z,60.4
2023-05-18T04:06:09.650Z,60.3
2023-05-18T04:11:28.185Z,61
2023-05-18T04:16:46.781Z,60.9
2023-05-18T04:22:05.389Z,61
2023-05-18T04:27:23.529Z,60.6
2023-05-18T04:32:41.961Z,60.3
2023-05-18T04:38:00.345Z,60.8
2023-05-18T04:43:18.534Z,57.1
2023-05-18T04:48:36.910Z,56.7
2023-05-18T04:53:55.502Z,57.7
2023-05-18T04:59:14.033Z,56.7
2023-05-18T05:04:32.721Z,56.9
2023-05-18T05:09:51.126Z,57.9
2023-05-18T05:15:09.658Z,57.5
2023-05-18T05:20:27.853Z,58
2023-05-18T05:25:46.345Z,58
2023-05-18T05:31:04.561Z,58.8
2023-05-18T05:36:22.884Z,58.9
2023-05-18T05:41:41.326Z,59
2023-05-18T05:47:00.564Z,58.4
2023-05-18T05:52:19.310Z,58.8
2023-05-18T05:57:37.452Z,59.2
2023-05-18T06:02:55.555Z,59.3
2023-05-18T06:08:13.814Z,58.4
2023-05-18T06:13:32.013Z,59
2023-05-18T06:18:50.150Z,59
2023-05-18T06:24:08.492Z,59
2023-05-18T06:29:26.953Z,59.1
2023-05-18T06:34:45.359Z,59
2023-05-18T06:40:03.919Z,59
2023-05-18T06:45:22.325Z,58.6
2023-05-18T06:50:40.634Z,59.3
2023-05-18T06:55:59.186Z,58.2
2023-05-18T07:01:17.521Z,59
2023-05-18T07:06:35.719Z,58.3
2023-05-18T07:11:54.040Z,59.1
2023-05-18T07:17:12.276Z,59.1
2023-05-18T07:27:48.072Z,58.3
2023-05-18T07:33:06.725Z,59
2023-05-18T07:49:00.566Z,59.3
2023-05-18T07:54:19.338Z,59.1
2023-05-18T07:59:37.512Z,58.6
2023-05-18T08:04:56.178Z,58.5
2023-05-18T08:10:14.329Z,58.5
2023-05-18T08:15:33.313Z,59
2023-05-18T08:20:51.748Z,58.6
2023-05-18T08:26:14.291Z,58.4
2023-05-18T08:31:32.562Z,58.6
2023-05-18T08:36:50.818Z,58.6
2023-05-18T08:42:09.333Z,58.5
2023-05-18T08:47:27.908Z,58.2
2023-05-18T08:52:46.291Z,58.3
2023-05-18T08:58:04.429Z,58.9
2023-05-18T09:03:22.576Z,59
2023-05-18T09:08:40.699Z,58.8
2023-05-18T09:13:58.750Z,58.4
2023-05-18T09:19:17.296Z,58.4
2023-05-18T09:24:35.704Z,58.2
2023-05-18T09:29:54.023Z,59.1
2023-05-18T09:35:12.558Z,58.7
2023-05-18T09:40:31.008Z,58.9
2023-05-18T09:45:49.337Z,58.8
2023-05-18T09:51:07.880Z,58.7
2023-05-18T09:56:26.227Z,58
2023-05-18T10:01:44.538Z,58.7
2023-05-18T10:07:02.935Z,58.8
2023-05-18T10:12:21.533Z,58.4
2023-05-18T10:17:40.425Z,58.5
2023-05-18T10:22:58.876Z,58.3
2023-05-18T10:28:17.194Z,58.5
2023-05-18T10:33:35.567Z,57.9
2023-05-18T10:38:54.031Z,58.6
2023-05-18T10:44:12.468Z,58
2023-05-18T10:49:30.625Z,58.7
2023-05-18T10:54:49.130Z,58.6
2023-05-18T11:00:13.103Z,58.1
2023-05-18T11:05:31.262Z,58.7
2023-05-18T11:10:49.522Z,58.5
2023-05-18T11:16:08.548Z,57.8
2023-05-18T11:21:26.834Z,57.8
2023-05-18T11:26:45.224Z,58.6
2023-05-18T11:32:05.902Z,57.7
2023-05-18T11:37:24.379Z,57.7
2023-05-18T11:42:42.730Z,57.6
2023-05-18T11:48:01.686Z,57.6
2023-05-18T11:53:20.336Z,57.6
2023-05-18T11:58:38.335Z,57.6
2023-05-18T12:03:57.040Z,57.4
2023-05-18T12:09:15.223Z,57.3
2023-05-18T12:14:33.559Z,57.8
2023-05-18T12:19:51.936Z,58.2
2023-05-18T12:25:10.423Z,57.3
2023-05-18T12:30:28.433Z,58.4
2023-05-18T12:35:46.874Z,58.2
2023-05-18T12:41:05.417Z,57.8
2023-05-18T12:46:23.781Z,58
2023-05-18T12:51:42.374Z,58
2023-05-18T12:57:03.102Z,57.5
2023-05-18T13:02:21.700Z,57.3
2023-05-18T13:07:40.261Z,58.2
2023-05-18T13:12:58.590Z,57.4
2023-05-18T13:18:17.079Z,57.4
2023-05-18T13:23:19.832Z,57.5
2023-05-18T13:28:38.316Z,57.6
2023-05-18T13:33:56.468Z,57.2
2023-05-18T13:39:14.585Z,57.8
2023-05-18T13:44:17.265Z,57.9
2023-05-18T13:49:35.794Z,58
2023-05-18T13:54:54.269Z,57.2
2023-05-18T14:00:12.439Z,57.8
2023-05-18T14:05:30.572Z,57.9
2023-05-18T14:10:49.320Z,58.3
2023-05-18T14:16:08.065Z,58.2
2023-05-18T14:21:26.584Z,57.9
2023-05-18T14:26:44.799Z,57
2023-05-18T14:32:03.120Z,57.4
2023-05-18T14:37:21.115Z,57.4
2023-05-18T14:42:39.404Z,57.4
2023-05-18T14:47:57.815Z,58.1
2023-05-18T14:53:15.810Z,57.9
2023-05-18T14:58:34.080Z,57.4
2023-05-18T15:03:52.781Z,57.8
2023-05-18T15:09:11.289Z,58
2023-05-18T15:14:29.829Z,57.6
2023-05-18T15:19:48.146Z,58
2023-05-18T15:25:06.670Z,57.7
2023-05-18T15:30:24.721Z,58.1
2023-05-18T15:35:42.910Z,57.2
2023-05-18T15:41:01.394Z,57.5
2023-05-18T15:46:20.017Z,57.9
2023-05-18T15:51:38.044Z,57.9
2023-05-18T15:56:56.457Z,58.1
2023-05-18T16:02:15.520Z,56.2
2023-05-18T16:07:33.847Z,57.8
2023-05-18T16:12:52.187Z,57.8
2023-05-18T16:17:55.064Z,58
2023-05-18T16:22:57.981Z,57.5
2023-05-18T16:28:16.638Z,57.8
2023-05-18T16:33:34.857Z,57.3
2023-05-18T16:38:52.778Z,57.2
2023-05-18T16:44:11.314Z,57.9
2023-05-18T16:49:30.002Z,57.2
2023-05-18T16:54:49.547Z,56.5
2023-05-18T17:00:07.702Z,57
2023-05-18T17:05:26.100Z,57.3
2023-05-18T17:10:44.313Z,57.2
2023-05-18T17:15:47.000Z,57.1
2023-05-18T17:21:05.307Z,57.3
2023-05-18T17:26:23.834Z,57.7
2023-05-18T17:31:26.577Z,57.9
2023-05-18T17:36:45.966Z,57.9
2023-05-18T17:42:04.153Z,57.4
2023-05-18T17:47:22.768Z,57.7
2023-05-18T17:52:25.273Z,57.7
2023-05-18T17:57:44.678Z,57.6
2023-05-18T18:03:03.691Z,58.4
2023-05-18T18:08:22.013Z,58.4
2023-05-18T18:13:40.666Z,57.9
2023-05-18T18:18:59.759Z,57.8
2023-05-18T18:24:18.079Z,58.2
2023-05-18T18:29:36.428Z,58.5
2023-05-18T18:34:54.547Z,58.3
2023-05-18T18:40:16.175Z,57.6
2023-05-18T18:45:34.331Z,57.8
2023-05-18T18:50:52.468Z,58.6
2023-05-18T18:56:10.921Z,58.3
2023-05-18T19:01:29.666Z,58.8
2023-05-18T19:06:48.061Z,58.5
2023-05-18T19:12:06.677Z,58.2
2023-05-18T19:17:25.121Z,58.2
2023-05-18T19:22:43.274Z,58.5
2023-05-18T19:28:01.623Z,58.6
2023-05-18T19:33:19.769Z,58.1
2023-05-18T19:38:38.082Z,58.2
2023-05-18T19:43:56.925Z,58.6
2023-05-18T19:49:15.308Z,58.8
2023-05-18T19:54:34.347Z,57.9
2023-05-18T19:59:52.946Z,57.8
2023-05-18T20:05:11.477Z,58.3
2023-05-18T20:10:30.968Z,58.9
2023-05-18T20:15:49.641Z,58.3
2023-05-18T20:21:07.583Z,59
2023-05-18T20:26:26.133Z,58.5
2023-05-18T20:31:44.628Z,58.5
2023-05-18T20:37:02.920Z,58.7
2023-05-18T20:42:21.465Z,58.6
2023-05-18T20:47:40.138Z,58.2
2023-05-18T20:52:58.386Z,58.6
2023-05-18T20:58:17.600Z,57.9
2023-05-18T21:03:36.336Z,58.8
2023-05-18T21:08:55.932Z,59
2023-05-18T21:14:14.506Z,58.5
2023-05-18T21:19:32.817Z,58.4
2023-05-18T21:24:51.170Z,58
2023-05-18T21:30:09.321Z,57.9
2023-05-18T21:35:27.694Z,58.1
2023-05-18T21:40:45.859Z,58.3
2023-05-18T21:46:05.149Z,58.4
2023-05-18T21:51:24.420Z,58.9
2023-05-18T21:56:42.701Z,58.8
2023-05-18T22:02:00.844Z,58.3
2023-05-18T22:07:19.287Z,58.2
2023-05-18T22:12:37.507Z,58.8
2023-05-18T22:17:40.175Z,59.2
2023-05-18T22:22:58.671Z,59.3
2023-05-18T22:28:16.822Z,58.5
2023-05-18T22:33:34.784Z,59.2
2023-05-18T22:38:53.217Z,58.4
2023-05-18T22:44:11.354Z,59
2023-05-18T22:49:29.733Z,59.6
2023-05-18T22:54:48.164Z,59.5
2023-05-18T23:00:06.513Z,58.8
2023-05-18T23:05:25.181Z,58.8
2023-05-18T23:10:43.834Z,59.1
2023-05-18T23:16:02.118Z,59.2
2023-05-18T23:21:20.313Z,59.7
2023-05-18T23:26:38.726Z,59.2
2023-05-18T23:31:56.910Z,59.1
2023-05-18T23:37:15.420Z,59.8
2023-05-18T23:42:33.888Z,60.6
2023-05-18T23:47:51.952Z,59.2
2023-05-18T23:53:10.133Z,59.6
2023-05-18T23:58:28.704Z,59.7
